Time,TemperatureF,DewpointF,PressureIn,WindDirection,WindDirectionDegrees,WindSpeedMPH,WindSpeedGustMPH,Humidity,HourlyPrecipIn,Conditions,Clouds,dailyrainin,SolarRadiationWatts/m^2,SoftwareType,DateUTC
2013-06-27 00:22:00,78.0,75.0,-100.00,SW,226,4.0,11.0,92,0.00,,,0.63,0.000000,,2013-06-27 04:22:00,
2013-06-27 00:32:00,78.0,75.0,-100.00,SW,226,4.0,11.0,92,0.00,,,0.63,0.000000,,2013-06-27 04:32:00,
2013-06-27 00:42:00,78.0,75.0,-100.00,SW,226,4.0,11.0,92,0.00,,,0.63,0.000000,,2013-06-27 04:42:00,
2013-06-27 00:52:00,78.0,75.0,-100.00,SW,226,4.0,11.0,92,0.00,,,0.63,0.000000,,2013-06-27 04:52:00,
2013-06-27 01:22:00,77.0,74.0,-100.00,SSE,151,0.0,7.0,92,0.00,,,0.63,0.000000,,2013-06-27 05:22:00,
2013-06-27 01:32:00,77.0,74.0,-100.00,SSE,151,0.0,7.0,92,0.00,,,0.63,0.000000,,2013-06-27 05:32:00,
2013-06-27 01:42:00,77.0,74.0,-100.00,SSE,151,0.0,7.0,92,0.00,,,0.63,0.000000,,2013-06-27 05:42:00,
2013-06-27 01:53:00,77.0,74.0,-100.00,SSE,151,0.0,7.0,92,0.00,,,0.63,0.000000,,2013-06-27 05:53:00,
2013-06-27 02:23:00,77.0,75.0,-100.00,South,183,5.0,6.0,94,0.00,,,0.63,0.000000,,2013-06-27 06:23:00,
2013-06-27 02:34:00,77.0,75.0,-100.00,South,183,5.0,6.0,94,0.00,,,0.63,0.000000,,2013-06-27 06:34:00,
2013-06-27 02:43:00,77.0,75.0,-100.00,South,183,5.0,6.0,94,0.00,,,0.63,0.000000,,2013-06-27 06:43:00,
2013-06-27 02:53:00,77.0,75.0,-100.00,South,183,5.0,6.0,94,0.00,,,0.63,0.000000,,2013-06-27 06:53:00,
2013-06-27 03:22:00,78.0,76.0,-100.00,South,191,6.0,8.0,94,0.00,,,0.63,0.000000,,2013-06-27 07:22:00,
2013-06-27 03:33:00,78.0,76.0,-100.00,South,191,6.0,8.0,94,0.00,,,0.63,0.000000,,2013-06-27 07:33:00,
2013-06-27 03:42:00,78.0,76.0,-100.00,South,191,6.0,8.0,94,0.00,,,0.63,0.000000,,2013-06-27 07:42:00,
2013-06-27 03:52:00,78.0,76.0,-100.00,South,191,6.0,8.0,94,0.00,,,0.63,0.000000,,2013-06-27 07:52:00,
2013-06-27 04:22:00,77.0,75.0,-100.00,South,174,5.0,9.0,94,0.00,,,0.63,0.000000,,2013-06-27 08:22:00,
2013-06-27 04:34:00,77.0,75.0,-100.00,South,174,5.0,9.0,94,0.00,,,0.63,0.000000,,2013-06-27 08:34:00,
2013-06-27 04:43:00,77.0,75.0,-100.00,South,174,5.0,9.0,94,0.00,,,0.63,0.000000,,2013-06-27 08:43:00,
2013-06-27 04:52:00,77.0,75.0,-100.00,South,174,5.0,9.0,94,0.00,,,0.63,0.000000,,2013-06-27 08:52:00,
2013-06-27 05:34:00,77.0,74.0,-100.00,South,186,6.0,9.0,92,0.00,,,0.63,0.000000,,2013-06-27 09:34:00,
2013-06-27 05:43:00,77.0,74.0,-100.00,South,186,6.0,9.0,92,0.00,,,0.63,0.000000,,2013-06-27 09:43:00,
2013-06-27 05:53:00,77.0,74.0,-100.00,South,186,6.0,9.0,92,0.00,,,0.63,0.000000,,2013-06-27 09:53:00,
2013-06-27 06:22:00,77.0,74.0,-100.00,SSW,208,5.0,10.0,92,0.00,,,0.63,0.000000,,2013-06-27 10:22:00,
2013-06-27 06:32:00,77.0,74.0,-100.00,SSW,208,5.0,10.0,92,0.00,,,0.63,0.000000,,2013-06-27 10:32:00,
2013-06-27 06:44:00,77.0,74.0,-100.00,SSW,208,5.0,10.0,92,0.00,,,0.63,0.000000,,2013-06-27 10:44:00,
2013-06-27 06:54:00,77.0,74.0,-100.00,SSW,208,5.0,10.0,92,0.00,,,0.63,0.000000,,2013-06-27 10:54:00,
2013-06-27 07:43:00,77.0,74.0,-100.00,SW,223,4.0,9.0,91,0.00,,,0.63,11.000000,,2013-06-27 11:43:00,
2013-06-27 07:52:00,77.0,74.0,-100.00,SW,223,4.0,9.0,91,0.00,,,0.63,11.000000,,2013-06-27 11:52:00,
2013-06-27 08:22:00,78.0,75.0,-100.00,SW,231,6.0,10.0,90,0.00,,,0.63,90.000000,,2013-06-27 12:22:00,
2013-06-27 08:34:00,78.0,75.0,-100.00,SW,231,6.0,10.0,90,0.00,,,0.63,90.000000,,2013-06-27 12:34:00,
2013-06-27 08:42:00,78.0,75.0,-100.00,SW,231,6.0,10.0,90,0.00,,,0.63,90.000000,,2013-06-27 12:42:00,
2013-06-27 09:34:00,81.0,77.0,-100.00,WSW,255,8.0,12.0,87,0.00,,,0.63,311.000000,,2013-06-27 13:34:00,
2013-06-27 09:43:00,81.0,77.0,-100.00,WSW,255,8.0,12.0,87,0.00,,,0.63,311.000000,,2013-06-27 13:43:00,
2013-06-27 09:52:00,81.0,77.0,-100.00,WSW,255,8.0,12.0,87,0.00,,,0.63,311.000000,,2013-06-27 13:52:00,
2013-06-27 10:33:00,85.0,78.0,-100.00,WSW,244,5.0,12.0,81,0.00,,,0.63,603.000000,,2013-06-27 14:33:00,
2013-06-27 10:43:00,85.0,78.0,-100.00,WSW,244,5.0,12.0,81,0.00,,,0.63,603.000000,,2013-06-27 14:43:00,
2013-06-27 10:52:00,85.0,78.0,-100.00,WSW,244,5.0,12.0,81,0.00,,,0.63,603.000000,,2013-06-27 14:52:00,
2013-06-27 11:42:00,89.0,79.0,-100.00,SW,232,6.0,12.0,72,0.00,,,0.63,817.000000,,2013-06-27 15:42:00,
2013-06-27 11:52:00,89.0,79.0,-100.00,SW,232,6.0,12.0,72,0.00,,,0.63,817.000000,,2013-06-27 15:52:00,
2013-06-27 12:23:00,91.0,77.0,-100.00,WSW,245,9.0,15.0,64,0.00,,,0.63,979.000000,,2013-06-27 16:23:00,
2013-06-27 12:34:00,91.0,77.0,-100.00,WSW,245,9.0,15.0,64,0.00,,,0.63,979.000000,,2013-06-27 16:34:00,
2013-06-27 12:43:00,91.0,77.0,-100.00,WSW,245,9.0,15.0,64,0.00,,,0.63,979.000000,,2013-06-27 16:43:00,
2013-06-27 12:53:00,91.0,77.0,-100.00,WSW,245,9.0,15.0,64,0.00,,,0.63,979.000000,,2013-06-27 16:53:00,
2013-06-27 13:43:00,93.0,77.0,-100.00,SW,227,9.0,16.0,59,0.00,,,0.63,1052.000000,,2013-06-27 17:43:00,
2013-06-27 13:53:00,93.0,77.0,-100.00,SW,227,9.0,16.0,59,0.00,,,0.63,1052.000000,,2013-06-27 17:53:00,
2013-06-27 14:22:00,90.0,77.0,-100.00,SW,220,8.0,16.0,65,0.01,,,0.64,702.000000,,2013-06-27 18:22:00,
2013-06-27 14:32:00,90.0,77.0,-100.00,SW,220,8.0,16.0,65,0.01,,,0.64,702.000000,,2013-06-27 18:32:00,
2013-06-27 14:44:00,90.0,77.0,-100.00,SW,220,8.0,16.0,65,0.01,,,0.64,702.000000,,2013-06-27 18:44:00,
2013-06-27 14:52:00,90.0,77.0,-100.00,SW,220,8.0,16.0,65,0.01,,,0.64,702.000000,,2013-06-27 18:52:00,
2013-06-27 15:23:00,88.0,79.0,-100.00,SW,215,4.0,22.0,74,0.06,,,0.70,594.000000,,2013-06-27 19:23:00,
2013-06-27 15:34:00,88.0,79.0,-100.00,SW,215,4.0,22.0,74,0.06,,,0.70,594.000000,,2013-06-27 19:34:00,
2013-06-27 15:42:00,88.0,79.0,-100.00,SW,215,4.0,22.0,74,0.06,,,0.70,594.000000,,2013-06-27 19:42:00,
2013-06-27 15:53:00,88.0,79.0,-100.00,SW,215,4.0,22.0,74,0.06,,,0.70,594.000000,,2013-06-27 19:53:00,
2013-06-27 16:22:00,92.0,78.0,-100.00,SSW,210,9.0,16.0,63,0.00,,,0.70,933.000000,,2013-06-27 20:22:00,
2013-06-27 16:38:00,92.0,78.0,-100.00,SSW,210,9.0,16.0,63,0.00,,,0.70,933.000000,,2013-06-27 20:38:00,
2013-06-27 16:46:00,92.0,78.0,-100.00,SSW,210,9.0,16.0,63,0.00,,,0.70,933.000000,,2013-06-27 20:46:00,
2013-06-27 16:54:00,92.0,78.0,-100.00,SSW,210,9.0,16.0,63,0.00,,,0.70,933.000000,,2013-06-27 20:54:00,
2013-06-27 17:25:00,92.0,78.0,-100.00,South,190,10.0,18.0,64,0.00,,,0.70,833.000000,,2013-06-27 21:25:00,
2013-06-27 17:36:00,92.0,78.0,-100.00,South,190,10.0,18.0,64,0.00,,,0.70,833.000000,,2013-06-27 21:36:00,
2013-06-27 17:47:00,92.0,78.0,-100.00,South,190,10.0,18.0,64,0.00,,,0.70,833.000000,,2013-06-27 21:47:00,
2013-06-27 17:53:00,92.0,78.0,-100.00,South,190,10.0,18.0,64,0.00,,,0.70,833.000000,,2013-06-27 21:53:00,
2013-06-27 17:55:00,89.0,77.0,-100.00,South,189,13.0,21.0,68,0.00,,,0.70,504.000000,,2013-06-27 21:55:00,
2013-06-27 18:35:00,89.0,77.0,-100.00,South,189,13.0,21.0,68,0.00,,,0.70,504.000000,,2013-06-27 22:35:00,
2013-06-27 18:48:00,89.0,77.0,-100.00,South,189,13.0,21.0,68,0.00,,,0.70,504.000000,,2013-06-27 22:48:00,
2013-06-27 18:55:00,85.0,76.0,-100.00,SSW,192,15.0,23.0,74,0.00,,,0.70,237.000000,,2013-06-27 22:55:00,
2013-06-27 19:25:00,85.0,76.0,-100.00,SSW,192,15.0,23.0,74,0.00,,,0.70,237.000000,,2013-06-27 23:25:00,
2013-06-27 19:35:00,85.0,76.0,-100.00,SSW,192,15.0,23.0,74,0.00,,,0.70,237.000000,,2013-06-27 23:35:00,
2013-06-27 19:45:00,85.0,76.0,-100.00,SSW,192,15.0,23.0,74,0.00,,,0.70,237.000000,,2013-06-27 23:45:00,
2013-06-27 20:29:00,82.0,74.0,-100.00,WSW,252,5.0,19.0,78,0.00,,,0.08,43.000000,,2013-06-28 00:29:00,
2013-06-27 20:36:00,82.0,74.0,-100.00,WSW,252,5.0,19.0,78,0.00,,,0.08,43.000000,,2013-06-28 00:36:00,
2013-06-27 20:45:00,82.0,74.0,-100.00,WSW,252,5.0,19.0,78,0.00,,,0.08,43.000000,,2013-06-28 00:45:00,
2013-06-27 20:55:00,79.0,70.0,-100.00,SSW,208,4.0,10.0,73,0.00,,,0.08,22.000000,,2013-06-28 00:55:00,
2013-06-27 21:46:00,79.0,70.0,-100.00,SSW,208,4.0,10.0,73,0.00,,,0.08,22.000000,,2013-06-28 01:46:00,
2013-06-27 21:55:00,80.0,69.0,-100.00,SSW,202,7.0,13.0,69,0.00,,,0.07,0.000000,,2013-06-28 01:55:00,
2013-06-27 22:28:00,80.0,69.0,-100.00,SSW,202,7.0,13.0,69,0.00,,,0.07,0.000000,,2013-06-28 02:28:00,
2013-06-27 22:37:00,80.0,69.0,-100.00,SSW,202,7.0,13.0,69,0.00,,,0.07,0.000000,,2013-06-28 02:37:00,
2013-06-27 22:49:00,80.0,69.0,-100.00,SSW,202,7.0,13.0,69,0.00,,,0.07,0.000000,,2013-06-28 02:49:00,
2013-06-27 22:55:00,79.0,70.0,-100.00,South,179,5.0,9.0,75,0.00,,,0.07,0.000000,,2013-06-28 02:55:00,
2013-06-27 23:28:00,79.0,70.0,-100.00,South,179,5.0,9.0,75,0.00,,,0.07,0.000000,,2013-06-28 03:28:00,
2013-06-27 23:37:00,79.0,70.0,-100.00,South,179,5.0,9.0,75,0.00,,,0.07,0.000000,,2013-06-28 03:37:00,
2013-06-27 23:45:00,79.0,70.0,-100.00,South,179,5.0,9.0,75,0.00,,,0.07,0.000000,,2013-06-28 03:45:00,